sensor_id;sensor_type;location;lat;lon;timestamp;P1;durP1;ratioP1;P2;durP2;ratioP2
85506;SDS011;75915;41.988;21.460;2024-03-23T00:55:40;35.63;;;17.05;;
85506;SDS011;75915;41.988;21.460;2024-03-23T00:58:06;39.78;;;16.90;;
85506;SDS011;75915;41.988;21.460;2024-03-23T01:00:31;45.35;;;18.02;;
85506;SDS011;75915;41.988;21.460;2024-03-23T01:02:57;42.30;;;16.58;;
85506;SDS011;75915;41.988;21.460;2024-03-23T01:05:24;32.85;;;16.73;;
85506;SDS011;75915;41.988;21.460;2024-03-23T01:08:17;40.17;;;17.27;;
85506;SDS011;75915;41.988;21.460;2024-03-23T01:11:06;37.47;;;16.08;;
85506;SDS011;75915;41.988;21.460;2024-03-23T01:13:37;38.13;;;16.95;;
85506;SDS011;75915;41.988;21.460;2024-03-23T01:16:08;32.20;;;15.43;;
85506;SDS011;75915;41.988;21.460;2024-03-23T01:18:40;43.78;;;17.15;;
85506;SDS011;75915;41.988;21.460;2024-03-23T01:24:23;28.35;;;14.15;;
85506;SDS011;75915;41.988;21.460;2024-03-23T01:26:49;34.60;;;15.15;;
85506;SDS011;75915;41.988;21.460;2024-03-23T01:29:14;32.90;;;14.77;;
85506;SDS011;75915;41.988;21.460;2024-03-23T01:31:40;30.10;;;14.52;;
85506;SDS011;75915;41.988;21.460;2024-03-23T01:34:05;35.17;;;13.02;;
85506;SDS011;75915;41.988;21.460;2024-03-23T01:36:31;35.15;;;14.63;;
85506;SDS011;75915;41.988;21.460;2024-03-23T01:38:56;29.58;;;13.88;;
85506;SDS011;75915;41.988;21.460;2024-03-23T01:41:24;31.02;;;13.82;;
85506;SDS011;75915;41.988;21.460;2024-03-23T01:43:49;33.58;;;13.88;;
85506;SDS011;75915;41.988;21.460;2024-03-23T01:46:15;29.23;;;13.52;;
85506;SDS011;75915;41.988;21.460;2024-03-23T01:51:07;35.08;;;14.55;;
85506;SDS011;75915;41.988;21.460;2024-03-23T01:53:34;31.58;;;13.63;;
85506;SDS011;75915;41.988;21.460;2024-03-23T01:55:59;31.63;;;14.25;;
85506;SDS011;75915;41.988;21.460;2024-03-23T01:58:25;30.90;;;14.48;;
85506;SDS011;75915;41.988;21.460;2024-03-23T02:00:50;36.70;;;15.20;;
85506;SDS011;75915;41.988;21.460;2024-03-23T02:03:25;38.72;;;14.13;;
85506;SDS011;75915;41.988;21.460;2024-03-23T02:05:51;27.10;;;14.23;;
85506;SDS011;75915;41.988;21.460;2024-03-23T02:10:45;27.83;;;13.98;;
85506;SDS011;75915;41.988;21.460;2024-03-23T02:13:10;28.17;;;13.63;;
85506;SDS011;75915;41.988;21.460;2024-03-23T02:15:39;31.63;;;13.10;;
85506;SDS011;75915;41.988;21.460;2024-03-23T02:18:04;28.15;;;13.52;;
85506;SDS011;75915;41.988;21.460;2024-03-23T02:20:30;25.38;;;12.85;;
85506;SDS011;75915;41.988;21.460;2024-03-23T02:22:55;29.90;;;13.05;;
85506;SDS011;75915;41.988;21.460;2024-03-23T02:25:22;27.88;;;12.07;;
85506;SDS011;75915;41.988;21.460;2024-03-23T02:27:48;26.13;;;12.38;;
85506;SDS011;75915;41.988;21.460;2024-03-23T02:30:14;25.40;;;12.55;;
85506;SDS011;75915;41.988;21.460;2024-03-23T02:32:41;23.98;;;11.10;;
85506;SDS011;75915;41.988;21.460;2024-03-23T02:35:07;22.08;;;12.00;;
85506;SDS011;75915;41.988;21.460;2024-03-23T02:37:32;28.63;;;11.20;;
85506;SDS011;75915;41.988;21.460;2024-03-23T02:39:58;19.63;;;11.32;;
85506;SDS011;75915;41.988;21.460;2024-03-23T02:42:23;20.95;;;11.73;;
85506;SDS011;75915;41.988;21.460;2024-03-23T02:44:49;23.98;;;11.60;;
85506;SDS011;75915;41.988;21.460;2024-03-23T02:47:16;24.58;;;10.73;;
85506;SDS011;75915;41.988;21.460;2024-03-23T02:49:41;26.45;;;11.57;;
85506;SDS011;75915;41.988;21.460;2024-03-23T02:52:07;27.33;;;10.73;;
85506;SDS011;75915;41.988;21.460;2024-03-23T02:54:33;23.13;;;9.93;;
85506;SDS011;75915;41.988;21.460;2024-03-23T02:56:58;18.67;;;10.20;;
85506;SDS011;75915;41.988;21.460;2024-03-23T02:59:24;20.38;;;10.27;;
85506;SDS011;75915;41.988;21.460;2024-03-23T03:01:49;23.35;;;9.32;;
85506;SDS011;75915;41.988;21.460;2024-03-23T03:04:16;21.33;;;9.40;;
85506;SDS011;75915;41.988;21.460;2024-03-23T03:06:48;20.95;;;10.85;;
85506;SDS011;75915;41.988;21.460;2024-03-23T03:09:14;23.15;;;10.10;;
85506;SDS011;75915;41.988;21.460;2024-03-23T03:11:39;25.90;;;10.65;;
85506;SDS011;75915;41.988;21.460;2024-03-23T03:14:05;16.90;;;10.32;;
85506;SDS011;75915;41.988;21.460;2024-03-23T03:16:32;19.80;;;9.23;;
85506;SDS011;75915;41.988;21.460;2024-03-23T03:18:58;26.88;;;9.35;;
85506;SDS011;75915;41.988;21.460;2024-03-23T03:21:25;21.23;;;8.93;;
85506;SDS011;75915;41.988;21.460;2024-03-23T03:23:52;18.65;;;10.95;;
85506;SDS011;75915;41.988;21.460;2024-03-23T03:26:18;21.35;;;10.00;;
85506;SDS011;75915;41.988;21.460;2024-03-23T03:28:43;21.13;;;9.20;;
85506;SDS011;75915;41.988;21.460;2024-03-23T03:31:17;19.58;;;9.45;;
85506;SDS011;75915;41.988;21.460;2024-03-23T03:36:11;18.75;;;9.57;;
85506;SDS011;75915;41.988;21.460;2024-03-23T03:38:38;18.02;;;9.52;;
85506;SDS011;75915;41.988;21.460;2024-03-23T03:41:04;16.92;;;9.05;;
85506;SDS011;75915;41.988;21.460;2024-03-23T03:43:31;21.05;;;9.35;;
85506;SDS011;75915;41.988;21.460;2024-03-23T03:45:57;23.13;;;9.80;;
85506;SDS011;75915;41.988;21.460;2024-03-23T03:48:24;24.80;;;9.18;;
85506;SDS011;75915;41.988;21.460;2024-03-23T03:50:49;18.92;;;9.93;;
85506;SDS011;75915;41.988;21.460;2024-03-23T03:53:15;18.67;;;9.02;;
85506;SDS011;75915;41.988;21.460;2024-03-23T03:55:41;20.35;;;9.52;;
85506;SDS011;75915;41.988;21.460;2024-03-23T03:58:07;17.98;;;8.43;;
85506;SDS011;75915;41.988;21.460;2024-03-23T04:00:32;27.13;;;9.93;;
85506;SDS011;75915;41.988;21.460;2024-03-23T04:02:58;17.70;;;9.52;;
85506;SDS011;75915;41.988;21.460;2024-03-23T04:05:23;23.67;;;9.90;;
85506;SDS011;75915;41.988;21.460;2024-03-23T04:07:49;19.77;;;8.40;;
85506;SDS011;75915;41.988;21.460;2024-03-23T04:10:17;20.38;;;9.30;;
85506;SDS011;75915;41.988;21.460;2024-03-23T04:12:43;20.23;;;9.00;;
85506;SDS011;75915;41.988;21.460;2024-03-23T04:15:12;18.45;;;8.38;;
85506;SDS011;75915;41.988;21.460;2024-03-23T04:17:38;17.95;;;9.38;;
85506;SDS011;75915;41.988;21.460;2024-03-23T04:20:04;20.30;;;8.82;;
85506;SDS011;75915;41.988;21.460;2024-03-23T04:22:34;18.17;;;9.30;;
85506;SDS011;75915;41.988;21.460;2024-03-23T04:25:02;21.35;;;8.95;;
85506;SDS011;75915;41.988;21.460;2024-03-23T04:27:34;21.63;;;8.65;;
85506;SDS011;75915;41.988;21.460;2024-03-23T04:30:01;25.13;;;9.65;;
85506;SDS011;75915;41.988;21.460;2024-03-23T04:32:30;22.85;;;9.23;;
85506;SDS011;75915;41.988;21.460;2024-03-23T04:34:56;27.08;;;9.90;;
85506;SDS011;75915;41.988;21.460;2024-03-23T04:37:22;22.67;;;9.85;;
85506;SDS011;75915;41.988;21.460;2024-03-23T04:39:48;22.88;;;11.85;;
85506;SDS011;75915;41.988;21.460;2024-03-23T04:42:16;25.70;;;11.15;;
85506;SDS011;75915;41.988;21.460;2024-03-23T04:44:42;25.50;;;11.38;;
85506;SDS011;75915;41.988;21.460;2024-03-23T04:47:10;25.63;;;11.75;;
85506;SDS011;75915;41.988;21.460;2024-03-23T04:49:36;28.98;;;12.27;;
85506;SDS011;75915;41.988;21.460;2024-03-23T04:52:02;28.58;;;12.38;;
85506;SDS011;75915;41.988;21.460;2024-03-23T04:54:30;27.58;;;12.05;;
85506;SDS011;75915;41.988;21.460;2024-03-23T04:56:57;32.35;;;13.45;;
85506;SDS011;75915;41.988;21.460;2024-03-23T04:59:23;31.02;;;12.80;;
85506;SDS011;75915;41.988;21.460;2024-03-23T05:01:48;34.47;;;13.52;;
85506;SDS011;75915;41.988;21.460;2024-03-23T05:04:15;25.25;;;13.05;;
85506;SDS011;75915;41.988;21.460;2024-03-23T05:06:41;26.65;;;12.88;;
85506;SDS011;75915;41.988;21.460;2024-03-23T05:09:09;35.50;;;13.90;;
85506;SDS011;75915;41.988;21.460;2024-03-23T05:11:38;32.13;;;13.68;;
85506;SDS011;75915;41.988;21.460;2024-03-23T05:14:04;35.33;;;14.10;;
85506;SDS011;75915;41.988;21.460;2024-03-23T05:16:29;33.63;;;13.32;;
85506;SDS011;75915;41.988;21.460;2024-03-23T05:18:55;26.17;;;14.25;;
85506;SDS011;75915;41.988;21.460;2024-03-23T05:21:20;35.15;;;13.90;;
85506;SDS011;75915;41.988;21.460;2024-03-23T05:23:47;30.38;;;14.13;;
85506;SDS011;75915;41.988;21.460;2024-03-23T05:26:13;34.38;;;14.50;;
85506;SDS011;75915;41.988;21.460;2024-03-23T05:28:40;40.30;;;15.40;;
85506;SDS011;75915;41.988;21.460;2024-03-23T05:31:06;34.13;;;15.60;;
85506;SDS011;75915;41.988;21.460;2024-03-23T05:33:34;35.75;;;15.07;;
85506;SDS011;75915;41.988;21.460;2024-03-23T05:36:00;36.28;;;14.70;;
85506;SDS011;75915;41.988;21.460;2024-03-23T05:38:26;30.55;;;14.45;;
85506;SDS011;75915;41.988;21.460;2024-03-23T05:40:54;29.95;;;15.30;;
85506;SDS011;75915;41.988;21.460;2024-03-23T05:43:26;31.50;;;14.77;;
85506;SDS011;75915;41.988;21.460;2024-03-23T05:48:21;32.85;;;15.77;;
85506;SDS011;75915;41.988;21.460;2024-03-23T05:50:49;28.23;;;13.80;;
85506;SDS011;75915;41.988;21.460;2024-03-23T05:53:15;37.47;;;16.45;;
85506;SDS011;75915;41.988;21.460;2024-03-23T05:55:42;31.13;;;14.73;;
85506;SDS011;75915;41.988;21.460;2024-03-23T05:58:08;30.63;;;13.88;;
85506;SDS011;75915;41.988;21.460;2024-03-23T06:00:34;29.75;;;13.50;;
85506;SDS011;75915;41.988;21.460;2024-03-23T06:03:00;26.80;;;13.88;;
85506;SDS011;75915;41.988;21.460;2024-03-23T06:05:26;23.45;;;13.90;;
85506;SDS011;75915;41.988;21.460;2024-03-23T06:07:52;29.67;;;12.63;;
85506;SDS011;75915;41.988;21.460;2024-03-23T06:10:18;32.00;;;14.75;;
85506;SDS011;75915;41.988;21.460;2024-03-23T06:12:48;31.85;;;13.25;;
85506;SDS011;75915;41.988;21.460;2024-03-23T06:15:14;31.80;;;13.75;;
85506;SDS011;75915;41.988;21.460;2024-03-23T06:17:41;37.28;;;15.55;;
85506;SDS011;75915;41.988;21.460;2024-03-23T06:20:06;31.73;;;14.93;;
85506;SDS011;75915;41.988;21.460;2024-03-23T06:22:32;37.20;;;15.15;;
85506;SDS011;75915;41.988;21.460;2024-03-23T06:27:24;31.48;;;14.10;;
85506;SDS011;75915;41.988;21.460;2024-03-23T06:29:50;32.90;;;15.05;;
85506;SDS011;75915;41.988;21.460;2024-03-23T06:32:16;31.42;;;14.65;;
85506;SDS011;75915;41.988;21.460;2024-03-23T06:34:43;29.40;;;14.32;;
85506;SDS011;75915;41.988;21.460;2024-03-23T06:37:12;35.88;;;15.00;;
85506;SDS011;75915;41.988;21.460;2024-03-23T06:39:39;33.67;;;14.95;;
85506;SDS011;75915;41.988;21.460;2024-03-23T06:42:04;35.80;;;16.08;;
85506;SDS011;75915;41.988;21.460;2024-03-23T06:44:33;29.75;;;14.70;;
85506;SDS011;75915;41.988;21.460;2024-03-23T06:46:58;34.72;;;13.82;;
85506;SDS011;75915;41.988;21.460;2024-03-23T06:49:25;28.02;;;14.05;;
85506;SDS011;75915;41.988;21.460;2024-03-23T06:51:52;38.47;;;15.77;;
85506;SDS011;75915;41.988;21.460;2024-03-23T06:54:19;32.42;;;15.18;;
85506;SDS011;75915;41.988;21.460;2024-03-23T06:56:45;29.55;;;13.57;;
85506;SDS011;75915;41.988;21.460;2024-03-23T06:59:11;28.48;;;14.10;;
85506;SDS011;75915;41.988;21.460;2024-03-23T07:01:37;25.70;;;12.80;;
85506;SDS011;75915;41.988;21.460;2024-03-23T07:04:04;26.92;;;12.65;;
85506;SDS011;75915;41.988;21.460;2024-03-23T07:06:33;39.85;;;13.85;;
85506;SDS011;75915;41.988;21.460;2024-03-23T07:08:58;29.52;;;13.20;;
85506;SDS011;75915;41.988;21.460;2024-03-23T07:11:24;26.73;;;13.70;;
85506;SDS011;75915;41.988;21.460;2024-03-23T07:13:50;24.48;;;12.57;;
85506;SDS011;75915;41.988;21.460;2024-03-23T07:16:19;39.47;;;14.73;;
85506;SDS011;75915;41.988;21.460;2024-03-23T07:18:50;32.25;;;15.30;;
85506;SDS011;75915;41.988;21.460;2024-03-23T07:21:15;33.08;;;15.10;;
85506;SDS011;75915;41.988;21.460;2024-03-23T07:23:43;29.45;;;12.82;;
85506;SDS011;75915;41.988;21.460;2024-03-23T07:26:12;31.77;;;14.95;;
85506;SDS011;75915;41.988;21.460;2024-03-23T07:28:38;27.05;;;12.48;;
85506;SDS011;75915;41.988;21.460;2024-03-23T07:31:09;33.30;;;13.48;;
85506;SDS011;75915;41.988;21.460;2024-03-23T07:33:40;27.35;;;11.45;;
85506;SDS011;75915;41.988;21.460;2024-03-23T07:36:13;26.58;;;11.35;;
85506;SDS011;75915;41.988;21.460;2024-03-23T07:38:42;30.52;;;13.05;;
85506;SDS011;75915;41.988;21.460;2024-03-23T07:41:10;24.35;;;11.38;;
85506;SDS011;75915;41.988;21.460;2024-03-23T07:43:37;22.90;;;11.40;;
85506;SDS011;75915;41.988;21.460;2024-03-23T07:46:05;29.70;;;12.70;;
85506;SDS011;75915;41.988;21.460;2024-03-23T07:48:31;29.98;;;12.98;;
85506;SDS011;75915;41.988;21.460;2024-03-23T07:51:01;24.25;;;12.75;;
85506;SDS011;75915;41.988;21.460;2024-03-23T07:53:35;28.83;;;12.98;;
85506;SDS011;75915;41.988;21.460;2024-03-23T07:56:03;24.63;;;12.65;;
85506;SDS011;75915;41.988;21.460;2024-03-23T07:58:29;27.98;;;10.70;;
85506;SDS011;75915;41.988;21.460;2024-03-23T08:01:15;24.17;;;10.20;;
85506;SDS011;75915;41.988;21.460;2024-03-23T08:06:11;19.80;;;9.00;;
85506;SDS011;75915;41.988;21.460;2024-03-23T08:08:43;20.30;;;9.15;;
85506;SDS011;75915;41.988;21.460;2024-03-23T08:11:12;21.42;;;10.25;;
85506;SDS011;75915;41.988;21.460;2024-03-23T08:13:39;22.38;;;9.80;;
85506;SDS011;75915;41.988;21.460;2024-03-23T08:16:07;24.25;;;10.85;;
85506;SDS011;75915;41.988;21.460;2024-03-23T08:18:37;19.38;;;10.13;;
85506;SDS011;75915;41.988;21.460;2024-03-23T08:21:05;27.00;;;9.77;;
85506;SDS011;75915;41.988;21.460;2024-03-23T08:23:35;20.50;;;9.27;;
85506;SDS011;75915;41.988;21.460;2024-03-23T08:26:09;17.55;;;8.70;;
85506;SDS011;75915;41.988;21.460;2024-03-23T08:28:37;25.42;;;10.27;;
85506;SDS011;75915;41.988;21.460;2024-03-23T08:31:04;49.72;;;24.52;;
85506;SDS011;75915;41.988;21.460;2024-03-23T08:33:30;20.75;;;10.88;;
85506;SDS011;75915;41.988;21.460;2024-03-23T08:36:14;27.25;;;11.15;;
85506;SDS011;75915;41.988;21.460;2024-03-23T08:38:40;19.55;;;9.75;;
85506;SDS011;75915;41.988;21.460;2024-03-23T08:41:09;22.85;;;10.10;;
85506;SDS011;75915;41.988;21.460;2024-03-23T08:43:39;16.70;;;8.60;;
85506;SDS011;75915;41.988;21.460;2024-03-23T08:46:15;20.63;;;9.77;;
85506;SDS011;75915;41.988;21.460;2024-03-23T08:48:42;19.90;;;10.02;;
85506;SDS011;75915;41.988;21.460;2024-03-23T08:51:10;21.10;;;10.25;;
85506;SDS011;75915;41.988;21.460;2024-03-23T08:53:37;26.15;;;9.63;;
85506;SDS011;75915;41.988;21.460;2024-03-23T08:58:29;19.40;;;9.50;;
85506;SDS011;75915;41.988;21.460;2024-03-23T09:00:57;28.67;;;9.98;;
85506;SDS011;75915;41.988;21.460;2024-03-23T09:03:28;21.25;;;9.68;;
85506;SDS011;75915;41.988;21.460;2024-03-23T09:05:54;24.98;;;10.57;;
85506;SDS011;75915;41.988;21.460;2024-03-23T09:08:20;20.80;;;10.77;;
85506;SDS011;75915;41.988;21.460;2024-03-23T09:10:46;22.50;;;10.20;;
85506;SDS011;75915;41.988;21.460;2024-03-23T09:13:14;23.83;;;11.40;;
85506;SDS011;75915;41.988;21.460;2024-03-23T09:15:48;20.52;;;9.18;;
85506;SDS011;75915;41.988;21.460;2024-03-23T09:18:15;17.08;;;9.18;;
85506;SDS011;75915;41.988;21.460;2024-03-23T09:20:40;21.70;;;9.98;;
85506;SDS011;75915;41.988;21.460;2024-03-23T09:23:06;23.58;;;10.50;;
85506;SDS011;75915;41.988;21.460;2024-03-23T09:25:32;20.80;;;10.13;;
85506;SDS011;75915;41.988;21.460;2024-03-23T09:28:06;20.48;;;9.30;;
85506;SDS011;75915;41.988;21.460;2024-03-23T09:30:33;20.50;;;9.88;;
85506;SDS011;75915;41.988;21.460;2024-03-23T09:33:00;19.63;;;9.02;;
85506;SDS011;75915;41.988;21.460;2024-03-23T09:35:26;19.05;;;10.38;;
85506;SDS011;75915;41.988;21.460;2024-03-23T09:37:52;25.25;;;12.38;;
85506;SDS011;75915;41.988;21.460;2024-03-23T09:40:18;24.25;;;11.55;;
85506;SDS011;75915;41.988;21.460;2024-03-23T09:42:49;19.70;;;9.98;;
85506;SDS011;75915;41.988;21.460;2024-03-23T09:45:23;20.33;;;9.35;;
85506;SDS011;75915;41.988;21.460;2024-03-23T09:47:52;21.05;;;8.85;;
85506;SDS011;75915;41.988;21.460;2024-03-23T09:50:18;15.63;;;7.47;;
85506;SDS011;75915;41.988;21.460;2024-03-23T09:52:46;16.65;;;8.05;;
85506;SDS011;75915;41.988;21.460;2024-03-23T09:55:12;15.73;;;8.73;;
85506;SDS011;75915;41.988;21.460;2024-03-23T09:57:39;22.15;;;8.88;;
85506;SDS011;75915;41.988;21.460;2024-03-23T10:00:05;20.98;;;9.88;;
85506;SDS011;75915;41.988;21.460;2024-03-23T10:02:31;19.83;;;9.40;;
85506;SDS011;75915;41.988;21.460;2024-03-23T10:04:58;16.42;;;7.40;;
85506;SDS011;75915;41.988;21.460;2024-03-23T10:07:25;19.15;;;8.57;;
85506;SDS011;75915;41.988;21.460;2024-03-23T10:09:55;19.33;;;8.88;;
85506;SDS011;75915;41.988;21.460;2024-03-23T10:12:23;16.65;;;8.40;;
85506;SDS011;75915;41.988;21.460;2024-03-23T10:14:49;20.30;;;8.77;;
85506;SDS011;75915;41.988;21.460;2024-03-23T10:17:16;24.00;;;11.90;;
85506;SDS011;75915;41.988;21.460;2024-03-23T10:19:48;15.80;;;7.75;;
85506;SDS011;75915;41.988;21.460;2024-03-23T10:22:25;19.10;;;8.45;;
85506;SDS011;75915;41.988;21.460;2024-03-23T10:24:54;18.63;;;8.65;;
85506;SDS011;75915;41.988;21.460;2024-03-23T10:27:34;18.17;;;8.73;;
85506;SDS011;75915;41.988;21.460;2024-03-23T10:30:09;19.77;;;8.05;;
85506;SDS011;75915;41.988;21.460;2024-03-23T10:32:45;15.73;;;6.97;;
85506;SDS011;75915;41.988;21.460;2024-03-23T10:35:15;12.63;;;6.28;;
85506;SDS011;75915;41.988;21.460;2024-03-23T10:37:44;16.83;;;7.00;;
85506;SDS011;75915;41.988;21.460;2024-03-23T10:40:12;14.48;;;7.03;;
85506;SDS011;75915;41.988;21.460;2024-03-23T10:42:38;15.20;;;6.97;;
85506;SDS011;75915;41.988;21.460;2024-03-23T10:45:05;14.05;;;7.38;;
85506;SDS011;75915;41.988;21.460;2024-03-23T10:49:57;19.85;;;6.95;;
85506;SDS011;75915;41.988;21.460;2024-03-23T10:52:23;13.35;;;6.68;;
85506;SDS011;75915;41.988;21.460;2024-03-23T10:57:17;14.68;;;6.88;;
85506;SDS011;75915;41.988;21.460;2024-03-23T10:59:45;15.30;;;7.43;;
85506;SDS011;75915;41.988;21.460;2024-03-23T11:02:20;18.23;;;8.45;;
85506;SDS011;75915;41.988;21.460;2024-03-23T11:04:46;14.65;;;6.90;;
85506;SDS011;75915;41.988;21.460;2024-03-23T11:09:52;18.15;;;7.10;;
85506;SDS011;75915;41.988;21.460;2024-03-23T11:15:00;12.73;;;6.68;;
85506;SDS011;75915;41.988;21.460;2024-03-23T11:17:38;11.50;;;5.78;;
85506;SDS011;75915;41.988;21.460;2024-03-23T11:20:04;10.05;;;5.55;;
85506;SDS011;75915;41.988;21.460;2024-03-23T11:25:03;10.68;;;4.63;;
85506;SDS011;75915;41.988;21.460;2024-03-23T11:30:16;11.35;;;5.45;;
85506;SDS011;75915;41.988;21.460;2024-03-23T11:32:47;11.40;;;5.32;;
85506;SDS011;75915;41.988;21.460;2024-03-23T11:35:30;12.63;;;6.28;;
85506;SDS011;75915;41.988;21.460;2024-03-23T11:38:17;9.20;;;5.55;;
85506;SDS011;75915;41.988;21.460;2024-03-23T11:40:47;10.32;;;4.63;;
85506;SDS011;75915;41.988;21.460;2024-03-23T11:43:17;10.77;;;5.50;;
85506;SDS011;75915;41.988;21.460;2024-03-23T11:45:50;8.52;;;4.80;;
85506;SDS011;75915;41.988;21.460;2024-03-23T11:48:22;13.02;;;5.35;;
85506;SDS011;75915;41.988;21.460;2024-03-23T11:50:49;9.25;;;4.50;;
85506;SDS011;75915;41.988;21.460;2024-03-23T11:53:16;12.38;;;4.63;;
85506;SDS011;75915;41.988;21.460;2024-03-23T11:55:47;13.77;;;5.40;;
85506;SDS011;75915;41.988;21.460;2024-03-23T11:58:19;11.70;;;5.05;;
85506;SDS011;75915;41.988;21.460;2024-03-23T12:00:55;13.73;;;6.18;;
85506;SDS011;75915;41.988;21.460;2024-03-23T12:03:26;8.07;;;3.92;;
85506;SDS011;75915;41.988;21.460;2024-03-23T12:06:00;10.85;;;4.28;;
85506;SDS011;75915;41.988;21.460;2024-03-23T12:08:30;9.82;;;4.40;;
85506;SDS011;75915;41.988;21.460;2024-03-23T12:11:06;12.82;;;4.38;;
85506;SDS011;75915;41.988;21.460;2024-03-23T12:13:34;7.20;;;4.13;;
85506;SDS011;75915;41.988;21.460;2024-03-23T12:18:34;8.18;;;3.55;;
85506;SDS011;75915;41.988;21.460;2024-03-23T12:23:25;8.75;;;4.13;;
85506;SDS011;75915;41.988;21.460;2024-03-23T12:25:50;7.47;;;3.67;;
85506;SDS011;75915;41.988;21.460;2024-03-23T12:28:16;7.10;;;4.15;;
85506;SDS011;75915;41.988;21.460;2024-03-23T12:33:07;7.95;;;3.40;;
85506;SDS011;75915;41.988;21.460;2024-03-23T12:35:33;8.43;;;4.28;;
85506;SDS011;75915;41.988;21.460;2024-03-23T12:40:24;10.23;;;3.92;;
85506;SDS011;75915;41.988;21.460;2024-03-23T12:42:50;7.57;;;4.45;;
85506;SDS011;75915;41.988;21.460;2024-03-23T12:45:15;10.27;;;3.92;;
85506;SDS011;75915;41.988;21.460;2024-03-23T12:50:07;8.30;;;4.35;;
85506;SDS011;75915;41.988;21.460;2024-03-23T12:52:34;7.03;;;3.65;;
85506;SDS011;75915;41.988;21.460;2024-03-23T12:57:29;8.75;;;4.10;;
85506;SDS011;75915;41.988;21.460;2024-03-23T12:59:56;6.57;;;3.85;;
85506;SDS011;75915;41.988;21.460;2024-03-23T13:02:23;8.38;;;4.22;;
85506;SDS011;75915;41.988;21.460;2024-03-23T13:09:49;8.00;;;3.83;;
85506;SDS011;75915;41.988;21.460;2024-03-23T13:12:16;8.57;;;3.67;;
85506;SDS011;75915;41.988;21.460;2024-03-23T13:14:44;8.43;;;3.50;;
85506;SDS011;75915;41.988;21.460;2024-03-23T13:17:11;7.50;;;3.65;;
85506;SDS011;75915;41.988;21.460;2024-03-23T13:22:02;11.70;;;5.10;;
85506;SDS011;75915;41.988;21.460;2024-03-23T13:24:29;9.65;;;4.03;;
85506;SDS011;75915;41.988;21.460;2024-03-23T13:29:20;8.75;;;3.60;;
85506;SDS011;75915;41.988;21.460;2024-03-23T13:31:49;10.32;;;3.75;;
85506;SDS011;75915;41.988;21.460;2024-03-23T13:34:16;6.47;;;3.20;;
85506;SDS011;75915;41.988;21.460;2024-03-23T13:36:45;6.93;;;3.58;;
85506;SDS011;75915;41.988;21.460;2024-03-23T13:39:13;7.18;;;4.35;;
85506;SDS011;75915;41.988;21.460;2024-03-23T13:41:40;9.85;;;3.50;;
85506;SDS011;75915;41.988;21.460;2024-03-23T13:44:13;6.28;;;3.70;;
85506;SDS011;75915;41.988;21.460;2024-03-23T13:46:40;7.63;;;3.60;;
85506;SDS011;75915;41.988;21.460;2024-03-23T13:51:52;7.13;;;3.65;;
85506;SDS011;75915;41.988;21.460;2024-03-23T13:54:19;6.47;;;3.63;;
85506;SDS011;75915;41.988;21.460;2024-03-23T13:56:44;7.47;;;4.00;;
85506;SDS011;75915;41.988;21.460;2024-03-23T13:59:11;8.07;;;3.83;;
85506;SDS011;75915;41.988;21.460;2024-03-23T14:04:02;10.13;;;3.92;;
85506;SDS011;75915;41.988;21.460;2024-03-23T14:08:53;10.00;;;4.43;;
85506;SDS011;75915;41.988;21.460;2024-03-23T14:13:44;6.22;;;3.58;;
85506;SDS011;75915;41.988;21.460;2024-03-23T14:18:35;13.18;;;3.63;;
85506;SDS011;75915;41.988;21.460;2024-03-23T14:23:28;7.13;;;3.65;;
85506;SDS011;75915;41.988;21.460;2024-03-23T14:25:58;6.93;;;3.78;;
85506;SDS011;75915;41.988;21.460;2024-03-23T14:30:49;7.82;;;3.60;;
85506;SDS011;75915;41.988;21.460;2024-03-23T14:33:15;6.07;;;3.40;;
85506;SDS011;75915;41.988;21.460;2024-03-23T14:35:52;7.85;;;3.55;;
85506;SDS011;75915;41.988;21.460;2024-03-23T14:38:18;10.27;;;4.32;;
85506;SDS011;75915;41.988;21.460;2024-03-23T14:40:46;8.18;;;4.55;;
85506;SDS011;75915;41.988;21.460;2024-03-23T14:43:17;7.25;;;3.17;;
85506;SDS011;75915;41.988;21.460;2024-03-23T14:46:05;6.18;;;3.47;;
85506;SDS011;75915;41.988;21.460;2024-03-23T14:48:32;8.68;;;4.20;;
85506;SDS011;75915;41.988;21.460;2024-03-23T14:50:58;10.57;;;3.42;;
85506;SDS011;75915;41.988;21.460;2024-03-23T14:53:25;7.80;;;4.05;;
85506;SDS011;75915;41.988;21.460;2024-03-23T14:55:53;8.55;;;3.55;;
85506;SDS011;75915;41.988;21.460;2024-03-23T14:58:19;8.38;;;3.50;;
85506;SDS011;75915;41.988;21.460;2024-03-23T15:03:11;6.07;;;3.10;;
85506;SDS011;75915;41.988;21.460;2024-03-23T15:05:36;6.22;;;3.35;;
85506;SDS011;75915;41.988;21.460;2024-03-23T15:10:28;8.00;;;3.50;;
85506;SDS011;75915;41.988;21.460;2024-03-23T15:15:19;9.38;;;3.90;;
85506;SDS011;75915;41.988;21.460;2024-03-23T15:20:10;10.48;;;3.60;;
85506;SDS011;75915;41.988;21.460;2024-03-23T15:22:39;7.93;;;3.60;;
85506;SDS011;75915;41.988;21.460;2024-03-23T15:25:07;8.90;;;4.03;;
85506;SDS011;75915;41.988;21.460;2024-03-23T15:27:35;64.75;;;30.40;;
85506;SDS011;75915;41.988;21.460;2024-03-23T15:32:26;16.70;;;5.15;;
85506;SDS011;75915;41.988;21.460;2024-03-23T15:34:52;6.65;;;3.60;;
85506;SDS011;75915;41.988;21.460;2024-03-23T15:37:18;11.00;;;4.43;;
85506;SDS011;75915;41.988;21.460;2024-03-23T15:39:44;10.50;;;4.53;;
85506;SDS011;75915;41.988;21.460;2024-03-23T15:44:35;8.02;;;4.10;;
85506;SDS011;75915;41.988;21.460;2024-03-23T15:49:26;14.70;;;4.90;;
85506;SDS011;75915;41.988;21.460;2024-03-23T15:51:53;11.98;;;4.47;;
85506;SDS011;75915;41.988;21.460;2024-03-23T15:54:19;10.00;;;4.22;;
85506;SDS011;75915;41.988;21.460;2024-03-23T15:56:48;7.18;;;3.90;;
85506;SDS011;75915;41.988;21.460;2024-03-23T15:59:13;7.75;;;3.45;;
85506;SDS011;75915;41.988;21.460;2024-03-23T16:04:04;11.05;;;4.85;;
85506;SDS011;75915;41.988;21.460;2024-03-23T16:08:55;9.07;;;4.43;;
85506;SDS011;75915;41.988;21.460;2024-03-23T16:13:47;8.23;;;4.82;;
85506;SDS011;75915;41.988;21.460;2024-03-23T16:16:15;10.00;;;5.25;;
85506;SDS011;75915;41.988;21.460;2024-03-23T16:18:41;9.98;;;5.18;;
85506;SDS011;75915;41.988;21.460;2024-03-23T16:23:34;8.43;;;4.70;;
85506;SDS011;75915;41.988;21.460;2024-03-23T16:26:03;14.02;;;6.00;;
85506;SDS011;75915;41.988;21.460;2024-03-23T16:28:30;10.55;;;5.72;;
85506;SDS011;75915;41.988;21.460;2024-03-23T16:31:01;19.48;;;5.35;;
85506;SDS011;75915;41.988;21.460;2024-03-23T16:33:28;11.80;;;5.78;;
85506;SDS011;75915;41.988;21.460;2024-03-23T16:38:28;12.00;;;6.30;;
85506;SDS011;75915;41.988;21.460;2024-03-23T16:43:51;17.30;;;8.02;;
85506;SDS011;75915;41.988;21.460;2024-03-23T16:48:42;13.82;;;6.53;;
85506;SDS011;75915;41.988;21.460;2024-03-23T16:51:10;18.75;;;6.85;;
85506;SDS011;75915;41.988;21.460;2024-03-23T16:53:37;25.70;;;7.82;;
85506;SDS011;75915;41.988;21.460;2024-03-23T16:56:08;18.10;;;7.45;;
85506;SDS011;75915;41.988;21.460;2024-03-23T16:58:34;18.90;;;8.00;;
85506;SDS011;75915;41.988;21.460;2024-03-23T17:01:08;14.70;;;7.78;;
85506;SDS011;75915;41.988;21.460;2024-03-23T17:06:14;16.48;;;7.03;;
85506;SDS011;75915;41.988;21.460;2024-03-23T17:08:41;17.13;;;7.38;;
85506;SDS011;75915;41.988;21.460;2024-03-23T17:11:08;21.95;;;7.45;;